sensor_id;sensor_type;location;lat;lon;timestamp;noise_LAeq;noise_LA_min;noise_LA_max;noise_LA01;noise_LA95
72858;Laerm;62742;52.136;4.500;2023-02-22T00:01:33;45.66;41.76;49.04;;
72858;Laerm;62742;52.136;4.500;2023-02-22T00:04:16;45.93;41.99;49.62;;
72858;Laerm;62742;52.136;4.500;2023-02-22T00:06:46;46.39;42.59;51.26;;
72858;Laerm;62742;52.136;4.500;2023-02-22T00:09:14;45.93;42.20;49.21;;
72858;Laerm;62742;52.136;4.500;2023-02-22T00:11:47;46.13;43.12;48.72;;
72858;Laerm;62742;52.136;4.500;2023-02-22T00:14:14;46.17;42.06;48.82;;
72858;Laerm;62742;52.136;4.500;2023-02-22T00:16:45;45.74;42.41;48.71;;
72858;Laerm;62742;52.136;4.500;2023-02-22T00:19:11;45.72;42.43;48.56;;
72858;Laerm;62742;52.136;4.500;2023-02-22T00:21:37;46.13;42.75;49.07;;
72858;Laerm;62742;52.136;4.500;2023-02-22T00:24:04;46.29;43.19;48.98;;
72858;Laerm;62742;52.136;4.500;2023-02-22T00:26:53;46.59;42.68;49.51;;
72858;Laerm;62742;52.136;4.500;2023-02-22T00:29:23;46.64;43.44;49.49;;
72858;Laerm;62742;52.136;4.500;2023-02-22T00:31:51;46.26;42.70;49.06;;
72858;Laerm;62742;52.136;4.500;2023-02-22T00:34:17;46.40;43.60;48.92;;
72858;Laerm;62742;52.136;4.500;2023-02-22T00:36:46;46.06;43.14;49.17;;
72858;Laerm;62742;52.136;4.500;2023-02-22T00:39:13;46.11;42.51;49.05;;
72858;Laerm;62742;52.136;4.500;2023-02-22T00:41:39;45.73;41.41;48.92;;
72858;Laerm;62742;52.136;4.500;2023-02-22T00:44:05;45.95;42.85;49.05;;
72858;Laerm;62742;52.136;4.500;2023-02-22T00:46:32;46.22;42.66;54.15;;
72858;Laerm;62742;52.136;4.500;2023-02-22T00:48:58;46.18;42.58;56.31;;
72858;Laerm;62742;52.136;4.500;2023-02-22T00:51:25;45.89;42.84;48.99;;
72858;Laerm;62742;52.136;4.500;2023-02-22T00:53:52;45.79;41.83;49.72;;
72858;Laerm;62742;52.136;4.500;2023-02-22T00:56:18;45.78;41.88;48.62;;
72858;Laerm;62742;52.136;4.500;2023-02-22T00:58:45;45.87;41.90;49.44;;
72858;Laerm;62742;52.136;4.500;2023-02-22T01:01:11;45.41;41.98;48.22;;
72858;Laerm;62742;52.136;4.500;2023-02-22T01:03:37;45.23;42.22;47.93;;
72858;Laerm;62742;52.136;4.500;2023-02-22T01:06:06;45.74;42.40;49.04;;
72858;Laerm;62742;52.136;4.500;2023-02-22T01:08:33;45.74;42.69;48.86;;
72858;Laerm;62742;52.136;4.500;2023-02-22T01:10:59;46.00;42.80;48.80;;
72858;Laerm;62742;52.136;4.500;2023-02-22T01:13:25;45.81;42.58;48.49;;
72858;Laerm;62742;52.136;4.500;2023-02-22T01:15:52;45.99;43.01;48.66;;
72858;Laerm;62742;52.136;4.500;2023-02-22T01:18:18;45.95;42.27;48.95;;
72858;Laerm;62742;52.136;4.500;2023-02-22T01:20:47;45.69;42.11;48.99;;
72858;Laerm;62742;52.136;4.500;2023-02-22T01:23:14;46.08;42.55;48.84;;
72858;Laerm;62742;52.136;4.500;2023-02-22T01:25:42;45.46;41.45;48.49;;
72858;Laerm;62742;52.136;4.500;2023-02-22T01:28:09;45.36;42.52;47.96;;
72858;Laerm;62742;52.136;4.500;2023-02-22T01:30:35;46.18;43.09;49.55;;
72858;Laerm;62742;52.136;4.500;2023-02-22T01:33:06;46.06;42.89;48.61;;
72858;Laerm;62742;52.136;4.500;2023-02-22T01:35:37;46.13;42.97;49.18;;
72858;Laerm;62742;52.136;4.500;2023-02-22T01:38:10;46.47;42.99;49.49;;
72858;Laerm;62742;52.136;4.500;2023-02-22T01:40:40;46.35;42.94;49.35;;
72858;Laerm;62742;52.136;4.500;2023-02-22T01:43:29;46.32;42.92;49.15;;
72858;Laerm;62742;52.136;4.500;2023-02-22T01:48:38;45.95;42.41;49.35;;
72858;Laerm;62742;52.136;4.500;2023-02-22T01:51:12;46.26;42.91;49.76;;
72858;Laerm;62742;52.136;4.500;2023-02-22T01:56:39;46.36;42.99;49.65;;
72858;Laerm;62742;52.136;4.500;2023-02-22T01:59:10;46.64;43.13;49.67;;
72858;Laerm;62742;52.136;4.500;2023-02-22T02:01:38;46.85;43.00;49.41;;
72858;Laerm;62742;52.136;4.500;2023-02-22T02:04:16;46.67;43.47;49.34;;
72858;Laerm;62742;52.136;4.500;2023-02-22T02:06:46;46.59;43.26;49.83;;
72858;Laerm;62742;52.136;4.500;2023-02-22T02:09:22;46.19;42.31;49.24;;
72858;Laerm;62742;52.136;4.500;2023-02-22T02:11:51;47.02;42.72;56.53;;
72858;Laerm;62742;52.136;4.500;2023-02-22T02:14:18;46.33;42.97;49.15;;
72858;Laerm;62742;52.136;4.500;2023-02-22T02:16:48;46.45;43.15;55.09;;
72858;Laerm;62742;52.136;4.500;2023-02-22T02:35:14;46.14;43.28;49.47;;
72858;Laerm;62742;52.136;4.500;2023-02-22T02:38:26;45.91;42.38;49.72;;
72858;Laerm;62742;52.136;4.500;2023-02-22T02:41:15;45.99;42.40;48.92;;
72858;Laerm;62742;52.136;4.500;2023-02-22T02:44:27;45.88;42.75;48.31;;
72858;Laerm;62742;52.136;4.500;2023-02-22T02:47:02;46.40;43.87;49.32;;
72858;Laerm;62742;52.136;4.500;2023-02-22T02:49:57;46.41;43.12;49.62;;
72858;Laerm;62742;52.136;4.500;2023-02-22T02:52:28;46.23;42.81;49.24;;
72858;Laerm;62742;52.136;4.500;2023-02-22T02:55:02;46.32;42.76;49.21;;
72858;Laerm;62742;52.136;4.500;2023-02-22T02:57:29;46.17;41.87;49.61;;
72858;Laerm;62742;52.136;4.500;2023-02-22T02:59:55;45.71;42.57;48.49;;
72858;Laerm;62742;52.136;4.500;2023-02-22T03:13:50;45.84;42.53;48.98;;
72858;Laerm;62742;52.136;4.500;2023-02-22T03:16:35;45.95;42.22;48.97;;
72858;Laerm;62742;52.136;4.500;2023-02-22T03:22:29;46.16;43.00;49.14;;
72858;Laerm;62742;52.136;4.500;2023-02-22T03:25:07;45.27;42.00;48.97;;
72858;Laerm;62742;52.136;4.500;2023-02-22T03:27:42;45.38;42.38;48.83;;
72858;Laerm;62742;52.136;4.500;2023-02-22T03:30:25;45.12;42.18;47.83;;
72858;Laerm;62742;52.136;4.500;2023-02-22T03:33:00;45.16;41.29;48.42;;
72858;Laerm;62742;52.136;4.500;2023-02-22T03:35:45;44.88;41.53;48.42;;
72858;Laerm;62742;52.136;4.500;2023-02-22T03:38:16;44.64;40.58;48.17;;
72858;Laerm;62742;52.136;4.500;2023-02-22T03:40:51;45.83;41.75;55.99;;
72858;Laerm;62742;52.136;4.500;2023-02-22T03:43:35;44.56;40.61;47.13;;
72858;Laerm;62742;52.136;4.500;2023-02-22T03:46:07;44.61;40.85;47.99;;
72858;Laerm;62742;52.136;4.500;2023-02-22T03:49:01;45.09;41.88;47.76;;
72858;Laerm;62742;52.136;4.500;2023-02-22T03:51:30;44.82;41.07;48.15;;
72858;Laerm;62742;52.136;4.500;2023-02-22T03:53:57;45.03;40.98;49.04;;
72858;Laerm;62742;52.136;4.500;2023-02-22T03:56:30;44.82;41.73;48.09;;
72858;Laerm;62742;52.136;4.500;2023-02-22T03:59:05;45.05;41.64;47.84;;
72858;Laerm;62742;52.136;4.500;2023-02-22T04:01:34;45.04;40.91;49.15;;
72858;Laerm;62742;52.136;4.500;2023-02-22T04:04:02;45.40;42.06;48.99;;
72858;Laerm;62742;52.136;4.500;2023-02-22T04:06:29;45.28;41.86;48.02;;
72858;Laerm;62742;52.136;4.500;2023-02-22T04:08:55;44.98;41.31;48.42;;
72858;Laerm;62742;52.136;4.500;2023-02-22T04:11:22;44.71;41.34;49.52;;
72858;Laerm;62742;52.136;4.500;2023-02-22T04:13:48;45.12;41.34;48.49;;
72858;Laerm;62742;52.136;4.500;2023-02-22T04:16:15;45.03;40.71;48.37;;
72858;Laerm;62742;52.136;4.500;2023-02-22T04:18:41;45.41;41.75;48.09;;
72858;Laerm;62742;52.136;4.500;2023-02-22T04:21:08;45.22;41.78;48.19;;
72858;Laerm;62742;52.136;4.500;2023-02-22T04:23:35;44.57;40.36;50.94;;
72858;Laerm;62742;52.136;4.500;2023-02-22T04:26:01;44.67;40.54;47.76;;
72858;Laerm;62742;52.136;4.500;2023-02-22T04:28:28;44.75;41.42;50.10;;
72858;Laerm;62742;52.136;4.500;2023-02-22T04:30:54;44.87;40.87;47.91;;
72858;Laerm;62742;52.136;4.500;2023-02-22T04:33:21;44.78;40.82;48.92;;
72858;Laerm;62742;52.136;4.500;2023-02-22T04:35:47;45.21;39.88;49.12;;
72858;Laerm;62742;52.136;4.500;2023-02-22T04:38:14;44.38;40.68;47.48;;
72858;Laerm;62742;52.136;4.500;2023-02-22T04:40:40;44.69;40.82;49.34;;
72858;Laerm;62742;52.136;4.500;2023-02-22T04:43:07;44.40;40.99;47.94;;
72858;Laerm;62742;52.136;4.500;2023-02-22T04:45:35;45.42;41.11;48.60;;
72858;Laerm;62742;52.136;4.500;2023-02-22T04:48:02;45.40;41.69;48.45;;
72858;Laerm;62742;52.136;4.500;2023-02-22T04:50:28;45.25;41.57;49.51;;
72858;Laerm;62742;52.136;4.500;2023-02-22T04:52:54;44.50;41.17;50.27;;
72858;Laerm;62742;52.136;4.500;2023-02-22T04:55:21;44.66;41.06;49.43;;
72858;Laerm;62742;52.136;4.500;2023-02-22T04:57:47;45.19;41.97;50.07;;
72858;Laerm;62742;52.136;4.500;2023-02-22T05:00:16;45.82;42.23;48.79;;
72858;Laerm;62742;52.136;4.500;2023-02-22T05:02:44;45.16;41.15;48.84;;
72858;Laerm;62742;52.136;4.500;2023-02-22T05:05:14;44.46;41.06;49.92;;
72858;Laerm;62742;52.136;4.500;2023-02-22T05:07:41;44.95;41.62;48.98;;
72858;Laerm;62742;52.136;4.500;2023-02-22T05:10:09;44.68;40.35;48.52;;
72858;Laerm;62742;52.136;4.500;2023-02-22T05:12:36;45.04;41.49;48.99;;
72858;Laerm;62742;52.136;4.500;2023-02-22T05:15:05;45.91;41.18;49.23;;
72858;Laerm;62742;52.136;4.500;2023-02-22T05:17:33;44.97;41.01;48.85;;
72858;Laerm;62742;52.136;4.500;2023-02-22T05:19:59;44.91;41.37;50.94;;
72858;Laerm;62742;52.136;4.500;2023-02-22T05:22:26;45.44;41.68;49.67;;
72858;Laerm;62742;52.136;4.500;2023-02-22T05:24:53;45.88;41.54;49.25;;
72858;Laerm;62742;52.136;4.500;2023-02-22T05:27:19;45.40;41.61;54.02;;
72858;Laerm;62742;52.136;4.500;2023-02-22T05:29:46;44.93;41.16;50.07;;
72858;Laerm;62742;52.136;4.500;2023-02-22T05:32:12;44.87;41.54;48.10;;
72858;Laerm;62742;52.136;4.500;2023-02-22T05:34:39;45.56;42.01;55.50;;
72858;Laerm;62742;52.136;4.500;2023-02-22T05:37:06;45.89;42.19;50.41;;
72858;Laerm;62742;52.136;4.500;2023-02-22T05:39:32;46.18;43.28;49.34;;
72858;Laerm;62742;52.136;4.500;2023-02-22T05:41:59;45.88;41.72;49.05;;
72858;Laerm;62742;52.136;4.500;2023-02-22T05:44:25;45.77;42.66;50.11;;
72858;Laerm;62742;52.136;4.500;2023-02-22T05:46:53;45.72;42.43;49.86;;
72858;Laerm;62742;52.136;4.500;2023-02-22T05:49:20;45.47;42.41;50.18;;
72858;Laerm;62742;52.136;4.500;2023-02-22T05:51:46;45.87;42.27;57.14;;
72858;Laerm;62742;52.136;4.500;2023-02-22T05:54:12;45.11;41.61;53.63;;
72858;Laerm;62742;52.136;4.500;2023-02-22T05:56:42;44.99;41.69;48.74;;
72858;Laerm;62742;52.136;4.500;2023-02-22T05:59:08;45.24;42.39;48.47;;
72858;Laerm;62742;52.136;4.500;2023-02-22T06:01:34;45.06;41.68;48.90;;
72858;Laerm;62742;52.136;4.500;2023-02-22T06:04:01;45.09;42.20;47.52;;
72858;Laerm;62742;52.136;4.500;2023-02-22T06:06:27;44.74;41.40;47.51;;
72858;Laerm;62742;52.136;4.500;2023-02-22T06:08:53;44.99;41.80;47.94;;
72858;Laerm;62742;52.136;4.500;2023-02-22T06:11:20;44.37;41.52;46.79;;
72858;Laerm;62742;52.136;4.500;2023-02-22T06:13:51;44.51;40.94;48.04;;
72858;Laerm;62742;52.136;4.500;2023-02-22T06:16:21;44.82;41.78;48.44;;
72858;Laerm;62742;52.136;4.500;2023-02-22T06:18:48;44.95;41.84;49.70;;
72858;Laerm;62742;52.136;4.500;2023-02-22T06:21:15;44.92;41.96;47.50;;
72858;Laerm;62742;52.136;4.500;2023-02-22T06:23:42;45.01;41.92;50.18;;
72858;Laerm;62742;52.136;4.500;2023-02-22T06:26:08;44.90;41.68;47.92;;
72858;Laerm;62742;52.136;4.500;2023-02-22T06:28:35;45.18;42.23;48.09;;
72858;Laerm;62742;52.136;4.500;2023-02-22T06:31:02;44.54;41.65;50.55;;
72858;Laerm;62742;52.136;4.500;2023-02-22T06:33:28;44.83;41.22;50.95;;
72858;Laerm;62742;52.136;4.500;2023-02-22T06:35:54;44.79;41.73;49.18;;
72858;Laerm;62742;52.136;4.500;2023-02-22T06:38:22;44.34;41.19;48.25;;
72858;Laerm;62742;52.136;4.500;2023-02-22T06:40:49;44.72;41.55;48.69;;
72858;Laerm;62742;52.136;4.500;2023-02-22T06:43:15;44.97;42.23;50.12;;
72858;Laerm;62742;52.136;4.500;2023-02-22T06:45:42;45.45;41.75;50.10;;
72858;Laerm;62742;52.136;4.500;2023-02-22T06:48:09;45.21;41.17;52.47;;
72858;Laerm;62742;52.136;4.500;2023-02-22T06:50:35;44.71;41.53;47.86;;
72858;Laerm;62742;52.136;4.500;2023-02-22T06:53:04;44.68;40.34;47.30;;
72858;Laerm;62742;52.136;4.500;2023-02-22T06:55:33;44.67;41.61;48.37;;
72858;Laerm;62742;52.136;4.500;2023-02-22T06:58:02;45.24;42.07;49.92;;
72858;Laerm;62742;52.136;4.500;2023-02-22T07:00:31;44.51;41.84;47.17;;
72858;Laerm;62742;52.136;4.500;2023-02-22T07:02:59;44.49;41.86;48.78;;
72858;Laerm;62742;52.136;4.500;2023-02-22T07:05:27;44.69;41.99;47.15;;
72858;Laerm;62742;52.136;4.500;2023-02-22T07:08:00;44.47;41.49;49.72;;
72858;Laerm;62742;52.136;4.500;2023-02-22T07:10:30;45.02;42.10;48.14;;
72858;Laerm;62742;52.136;4.500;2023-02-22T07:12:57;44.85;42.24;47.22;;
72858;Laerm;62742;52.136;4.500;2023-02-22T07:15:26;44.73;41.56;47.39;;
72858;Laerm;62742;52.136;4.500;2023-02-22T07:17:54;44.73;41.98;48.32;;
72858;Laerm;62742;52.136;4.500;2023-02-22T07:20:22;44.74;41.46;54.22;;
72858;Laerm;62742;52.136;4.500;2023-02-22T07:22:50;44.55;40.83;54.21;;
72858;Laerm;62742;52.136;4.500;2023-02-22T07:25:17;44.76;41.89;51.04;;
72858;Laerm;62742;52.136;4.500;2023-02-22T07:27:45;44.94;41.65;49.70;;
72858;Laerm;62742;52.136;4.500;2023-02-22T07:32:46;45.10;41.35;48.26;;
72858;Laerm;62742;52.136;4.500;2023-02-22T07:35:27;44.72;41.82;47.77;;
72858;Laerm;62742;52.136;4.500;2023-02-22T07:37:55;44.79;41.73;49.60;;
72858;Laerm;62742;52.136;4.500;2023-02-22T07:40:23;44.85;41.99;47.94;;
72858;Laerm;62742;52.136;4.500;2023-02-22T07:43:14;44.72;41.57;47.50;;
72858;Laerm;62742;52.136;4.500;2023-02-22T07:45:41;44.65;41.80;47.60;;
72858;Laerm;62742;52.136;4.500;2023-02-22T07:48:09;44.95;40.40;48.54;;
72858;Laerm;62742;52.136;4.500;2023-02-22T07:50:38;45.08;42.20;48.82;;
72858;Laerm;62742;52.136;4.500;2023-02-22T07:53:10;44.77;42.05;49.64;;
72858;Laerm;62742;52.136;4.500;2023-02-22T07:55:37;45.01;41.38;48.07;;
72858;Laerm;62742;52.136;4.500;2023-02-22T07:58:07;45.00;41.06;49.47;;
72858;Laerm;62742;52.136;4.500;2023-02-22T08:00:38;45.15;41.45;48.61;;
72858;Laerm;62742;52.136;4.500;2023-02-22T08:03:09;45.39;41.45;56.97;;
72858;Laerm;62742;52.136;4.500;2023-02-22T08:05:38;44.87;41.51;48.07;;
72858;Laerm;62742;52.136;4.500;2023-02-22T08:08:06;44.39;41.25;49.25;;
72858;Laerm;62742;52.136;4.500;2023-02-22T08:10:34;44.81;40.20;54.55;;
72858;Laerm;62742;52.136;4.500;2023-02-22T08:13:03;44.63;41.03;47.56;;
72858;Laerm;62742;52.136;4.500;2023-02-22T08:15:37;44.27;40.81;47.96;;
72858;Laerm;62742;52.136;4.500;2023-02-22T08:18:08;44.39;40.84;49.46;;
72858;Laerm;62742;52.136;4.500;2023-02-22T08:20:36;44.52;41.25;49.21;;
72858;Laerm;62742;52.136;4.500;2023-02-22T08:23:05;44.86;41.62;47.86;;
72858;Laerm;62742;52.136;4.500;2023-02-22T08:25:33;44.82;41.75;49.46;;
72858;Laerm;62742;52.136;4.500;2023-02-22T08:28:07;45.23;41.64;54.45;;
72858;Laerm;62742;52.136;4.500;2023-02-22T08:30:36;44.61;41.11;53.36;;
72858;Laerm;62742;52.136;4.500;2023-02-22T08:33:03;44.25;40.43;47.23;;
72858;Laerm;62742;52.136;4.500;2023-02-22T08:35:31;44.65;41.83;47.55;;
72858;Laerm;62742;52.136;4.500;2023-02-22T08:38:03;44.43;41.28;47.28;;
72858;Laerm;62742;52.136;4.500;2023-02-22T08:40:35;44.61;41.58;55.16;;
72858;Laerm;62742;52.136;4.500;2023-02-22T08:43:03;44.25;41.21;47.32;;
72858;Laerm;62742;52.136;4.500;2023-02-22T08:45:30;44.75;41.02;48.91;;
72858;Laerm;62742;52.136;4.500;2023-02-22T08:47:57;45.28;41.39;50.54;;
72858;Laerm;62742;52.136;4.500;2023-02-22T08:50:29;44.75;41.67;51.43;;
72858;Laerm;62742;52.136;4.500;2023-02-22T08:53:01;44.76;40.75;49.33;;
72858;Laerm;62742;52.136;4.500;2023-02-22T08:55:35;44.51;41.18;46.95;;
72858;Laerm;62742;52.136;4.500;2023-02-22T08:58:05;45.48;41.78;56.07;;
72858;Laerm;62742;52.136;4.500;2023-02-22T09:00:35;44.51;41.59;48.39;;
72858;Laerm;62742;52.136;4.500;2023-02-22T09:03:08;44.72;41.16;49.21;;
72858;Laerm;62742;52.136;4.500;2023-02-22T09:05:35;44.67;41.34;48.08;;
72858;Laerm;62742;52.136;4.500;2023-02-22T09:08:02;44.26;40.64;47.87;;
72858;Laerm;62742;52.136;4.500;2023-02-22T09:10:33;44.45;40.89;48.36;;
72858;Laerm;62742;52.136;4.500;2023-02-22T09:13:01;44.85;41.46;55.36;;
72858;Laerm;62742;52.136;4.500;2023-02-22T09:15:30;44.33;41.15;48.36;;
72858;Laerm;62742;52.136;4.500;2023-02-22T09:17:58;44.70;41.27;47.80;;
72858;Laerm;62742;52.136;4.500;2023-02-22T09:20:26;45.14;41.21;49.61;;
72858;Laerm;62742;52.136;4.500;2023-02-22T09:22:54;45.27;41.80;50.11;;
72858;Laerm;62742;52.136;4.500;2023-02-22T09:25:21;45.62;42.20;49.03;;
72858;Laerm;62742;52.136;4.500;2023-02-22T09:27:54;45.43;41.53;50.54;;
72858;Laerm;62742;52.136;4.500;2023-02-22T09:30:32;44.90;41.88;47.93;;
72858;Laerm;62742;52.136;4.500;2023-02-22T09:33:02;45.13;41.68;50.15;;
72858;Laerm;62742;52.136;4.500;2023-02-22T09:35:29;45.71;42.03;51.03;;
72858;Laerm;62742;52.136;4.500;2023-02-22T09:37:59;46.45;41.71;56.09;;
72858;Laerm;62742;52.136;4.500;2023-02-22T09:40:29;45.73;42.40;50.71;;
72858;Laerm;62742;52.136;4.500;2023-02-22T09:51:59;44.91;41.03;50.24;;
72858;Laerm;62742;52.136;4.500;2023-02-22T09:54:35;44.82;40.83;55.26;;
72858;Laerm;62742;52.136;4.500;2023-02-22T09:57:10;45.40;40.98;56.36;;
72858;Laerm;62742;52.136;4.500;2023-02-22T09:59:47;44.97;41.47;50.19;;
72858;Laerm;62742;52.136;4.500;2023-02-22T10:02:31;45.06;41.89;48.51;;
72858;Laerm;62742;52.136;4.500;2023-02-22T10:05:23;44.90;40.45;49.60;;
72858;Laerm;62742;52.136;4.500;2023-02-22T10:08:00;45.16;41.48;48.11;;
72858;Laerm;62742;52.136;4.500;2023-02-22T10:10:36;44.84;41.20;47.94;;
72858;Laerm;62742;52.136;4.500;2023-02-22T10:13:38;44.37;40.77;48.24;;
72858;Laerm;62742;52.136;4.500;2023-02-22T10:16:19;44.42;41.68;48.47;;
72858;Laerm;62742;52.136;4.500;2023-02-22T10:24:31;45.70;42.44;48.66;;
72858;Laerm;62742;52.136;4.500;2023-02-22T10:27:18;45.35;42.41;48.50;;
72858;Laerm;62742;52.136;4.500;2023-02-22T10:29:52;45.32;42.18;48.14;;
72858;Laerm;62742;52.136;4.500;2023-02-22T10:32:28;45.80;42.68;48.49;;
72858;Laerm;62742;52.136;4.500;2023-02-22T10:34:59;45.77;41.85;48.88;;
72858;Laerm;62742;52.136;4.500;2023-02-22T10:37:33;45.67;41.81;48.64;;
72858;Laerm;62742;52.136;4.500;2023-02-22T10:40:18;45.71;42.41;50.59;;
72858;Laerm;62742;52.136;4.500;2023-02-22T10:42:49;45.54;41.66;48.92;;
72858;Laerm;62742;52.136;4.500;2023-02-22T10:47:55;45.59;41.69;48.69;;
72858;Laerm;62742;52.136;4.500;2023-02-22T10:50:27;45.17;42.04;47.96;;
72858;Laerm;62742;52.136;4.500;2023-02-22T10:52:55;44.81;41.96;50.50;;
72858;Laerm;62742;52.136;4.500;2023-02-22T10:55:21;45.01;41.88;48.30;;
72858;Laerm;62742;52.136;4.500;2023-02-22T10:57:51;44.93;42.00;48.29;;
72858;Laerm;62742;52.136;4.500;2023-02-22T11:00:33;44.76;41.87;48.18;;
72858;Laerm;62742;52.136;4.500;2023-02-22T11:03:16;44.63;42.31;47.01;;
72858;Laerm;62742;52.136;4.500;2023-02-22T11:05:43;44.49;41.58;47.75;;
72858;Laerm;62742;52.136;4.500;2023-02-22T11:08:30;44.58;41.79;50.72;;
72858;Laerm;62742;52.136;4.500;2023-02-22T11:11:23;44.50;41.78;47.56;;
72858;Laerm;62742;52.136;4.500;2023-02-22T11:13:55;45.07;41.78;47.76;;
72858;Laerm;62742;52.136;4.500;2023-02-22T11:16:48;45.32;42.76;48.09;;
72858;Laerm;62742;52.136;4.500;2023-02-22T11:19:23;45.00;41.86;48.10;;
72858;Laerm;62742;52.136;4.500;2023-02-22T11:21:56;45.22;42.10;47.74;;
72858;Laerm;62742;52.136;4.500;2023-02-22T11:24:24;44.99;41.89;47.65;;
72858;Laerm;62742;52.136;4.500;2023-02-22T11:27:00;45.30;41.61;48.08;;
72858;Laerm;62742;52.136;4.500;2023-02-22T11:29:35;45.08;40.98;47.83;;
72858;Laerm;62742;52.136;4.500;2023-02-22T11:32:14;44.44;40.15;49.30;;
72858;Laerm;62742;52.136;4.500;2023-02-22T11:34:47;44.36;40.99;47.43;;
72858;Laerm;62742;52.136;4.500;2023-02-22T11:40:09;44.22;40.79;46.64;;
72858;Laerm;62742;52.136;4.500;2023-02-22T11:42:38;44.16;41.04;48.97;;
72858;Laerm;62742;52.136;4.500;2023-02-22T11:45:19;44.58;41.43;47.39;;
72858;Laerm;62742;52.136;4.500;2023-02-22T11:47:56;44.01;40.66;46.61;;
72858;Laerm;62742;52.136;4.500;2023-02-22T11:53:28;44.18;41.43;46.55;;
72858;Laerm;62742;52.136;4.500;2023-02-22T11:56:30;43.96;40.57;46.90;;
72858;Laerm;62742;52.136;4.500;2023-02-22T12:05:19;45.02;42.30;47.61;;
72858;Laerm;62742;52.136;4.500;2023-02-22T12:08:31;45.19;41.78;47.65;;
72858;Laerm;62742;52.136;4.500;2023-02-22T12:14:33;44.97;42.02;56.32;;
72858;Laerm;62742;52.136;4.500;2023-02-22T12:20:25;45.10;42.11;48.87;;
72858;Laerm;62742;52.136;4.500;2023-02-22T12:26:17;44.71;42.01;46.91;;
72858;Laerm;62742;52.136;4.500;2023-02-22T12:31:53;45.56;42.82;47.98;;
72858;Laerm;62742;52.136;4.500;2023-02-22T12:34:38;45.51;42.20;47.95;;
72858;Laerm;62742;52.136;4.500;2023-02-22T12:37:36;45.36;42.26;48.40;;
72858;Laerm;62742;52.136;4.500;2023-02-22T12:48:54;44.03;40.80;46.86;;
72858;Laerm;62742;52.136;4.500;2023-02-22T12:51:47;44.13;41.13;46.83;;
72858;Laerm;62742;52.136;4.500;2023-02-22T12:54:51;44.13;41.15;48.12;;
72858;Laerm;62742;52.136;4.500;2023-02-22T12:57:39;43.77;40.95;46.14;;
72858;Laerm;62742;52.136;4.500;2023-02-22T13:00:46;43.99;40.10;50.34;;
72858;Laerm;62742;52.136;4.500;2023-02-22T13:03:34;44.12;41.10;46.15;;
72858;Laerm;62742;52.136;4.500;2023-02-22T13:09:08;44.47;40.80;47.52;;
72858;Laerm;62742;52.136;4.500;2023-02-22T13:20:53;44.43;40.77;47.29;;
72858;Laerm;62742;52.136;4.500;2023-02-22T13:23:44;43.73;40.27;46.32;;
72858;Laerm;62742;52.136;4.500;2023-02-22T13:29:26;43.88;41.13;46.22;;
72858;Laerm;62742;52.136;4.500;2023-02-22T13:40:41;44.66;41.08;47.56;;
72858;Laerm;62742;52.136;4.500;2023-02-22T13:52:11;44.98;41.70;48.04;;
72858;Laerm;62742;52.136;4.500;2023-02-22T13:54:50;44.80;40.85;47.94;;
72858;Laerm;62742;52.136;4.500;2023-02-22T13:57:44;44.90;41.21;54.00;;
72858;Laerm;62742;52.136;4.500;2023-02-22T14:10:53;45.27;42.04;48.41;;
72858;Laerm;62742;52.136;4.500;2023-02-22T14:13:29;45.91;42.53;48.75;;
72858;Laerm;62742;52.136;4.500;2023-02-22T14:18:42;45.58;42.28;48.22;;
72858;Laerm;62742;52.136;4.500;2023-02-22T14:21:17;46.25;42.96;49.18;;
72858;Laerm;62742;52.136;4.500;2023-02-22T14:23:53;46.32;42.99;48.86;;
72858;Laerm;62742;52.136;4.500;2023-02-22T14:26:33;45.59;41.35;48.36;;
72858;Laerm;62742;52.136;4.500;2023-02-22T14:29:17;45.74;42.60;49.30;;
72858;Laerm;62742;52.136;4.500;2023-02-22T14:34:19;45.37;41.91;48.72;;
72858;Laerm;62742;52.136;4.500;2023-02-22T14:42:18;45.63;42.40;49.01;;
72858;Laerm;62742;52.136;4.500;2023-02-22T14:47:27;46.03;43.11;48.82;;
72858;Laerm;62742;52.136;4.500;2023-02-22T14:50:06;45.68;42.32;48.11;;
72858;Laerm;62742;52.136;4.500;2023-02-22T14:52:38;45.77;42.60;48.51;;
72858;Laerm;62742;52.136;4.500;2023-02-22T14:55:25;45.85;41.96;48.97;;
72858;Laerm;62742;52.136;4.500;2023-02-22T14:58:06;46.11;42.90;48.73;;
72858;Laerm;62742;52.136;4.500;2023-02-22T15:00:44;45.98;42.56;48.68;;
72858;Laerm;62742;52.136;4.500;2023-02-22T15:03:27;45.28;41.64;48.06;;
72858;Laerm;62742;52.136;4.500;2023-02-22T15:06:19;45.62;42.13;54.82;;
72858;Laerm;62742;52.136;4.500;2023-02-22T15:08:48;45.28;42.23;48.29;;
72858;Laerm;62742;52.136;4.500;2023-02-22T15:11:30;45.52;41.58;48.58;;
72858;Laerm;62742;52.136;4.500;2023-02-22T15:13:59;45.42;41.86;48.53;;
72858;Laerm;62742;52.136;4.500;2023-02-22T15:16:30;45.38;41.96;47.75;;
72858;Laerm;62742;52.136;4.500;2023-02-22T15:19:04;45.18;41.27;48.08;;
72858;Laerm;62742;52.136;4.500;2023-02-22T15:21:33;45.17;42.00;48.28;;
72858;Laerm;62742;52.136;4.500;2023-02-22T15:24:04;45.47;41.81;48.63;;
72858;Laerm;62742;52.136;4.500;2023-02-22T15:29:14;44.98;41.42;48.12;;
72858;Laerm;62742;52.136;4.500;2023-02-22T15:31:41;44.49;40.67;47.05;;
72858;Laerm;62742;52.136;4.500;2023-02-22T15:36:37;44.67;41.34;47.46;;
72858;Laerm;62742;52.136;4.500;2023-02-22T15:39:04;44.68;42.18;47.40;;
72858;Laerm;62742;52.136;4.500;2023-02-22T15:41:34;45.28;41.53;48.33;;
72858;Laerm;62742;52.136;4.500;2023-02-22T15:44:04;45.30;41.59;48.75;;
72858;Laerm;62742;52.136;4.500;2023-02-22T15:46:32;45.92;42.54;48.82;;
72858;Laerm;62742;52.136;4.500;2023-02-22T15:51:42;45.85;42.48;48.60;;
72858;Laerm;62742;52.136;4.500;2023-02-22T15:54:12;46.03;42.76;48.38;;
72858;Laerm;62742;52.136;4.500;2023-02-22T15:56:49;45.04;41.25;47.90;;
72858;Laerm;62742;52.136;4.500;2023-02-22T15:59:23;44.79;41.58;47.22;;
72858;Laerm;62742;52.136;4.500;2023-02-22T16:01:57;44.58;41.14;47.38;;
72858;Laerm;62742;52.136;4.500;2023-02-22T16:04:28;44.48;41.40;47.17;;
72858;Laerm;62742;52.136;4.500;2023-02-22T16:07:06;44.29;40.86;48.96;;
72858;Laerm;62742;52.136;4.500;2023-02-22T16:09:50;45.60;42.01;48.35;;
72858;Laerm;62742;52.136;4.500;2023-02-22T16:14:47;44.68;41.25;48.59;;
72858;Laerm;62742;52.136;4.500;2023-02-22T16:19:51;45.44;41.81;48.34;;
72858;Laerm;62742;52.136;4.500;2023-02-22T16:22:35;45.23;42.09;48.17;;
72858;Laerm;62742;52.136;4.500;2023-02-22T16:27:59;45.10;41.72;48.00;;
72858;Laerm;62742;52.136;4.500;2023-02-22T16:30:35;44.72;41.97;48.80;;
72858;Laerm;62742;52.136;4.500;2023-02-22T16:33:07;45.02;42.15;50.12;;
72858;Laerm;62742;52.136;4.500;2023-02-22T16:35:39;45.41;42.39;48.66;;
72858;Laerm;62742;52.136;4.500;2023-02-22T16:38:07;45.38;41.71;48.99;;
72858;Laerm;62742;52.136;4.500;2023-02-22T16:40:49;46.04;42.51;49.14;;
72858;Laerm;62742;52.136;4.500;2023-02-22T16:43:22;45.95;42.52;48.48;;
72858;Laerm;62742;52.136;4.500;2023-02-22T16:45:49;45.67;41.47;48.58;;
72858;Laerm;62742;52.136;4.500;2023-02-22T16:48:24;45.72;41.87;49.09;;
72858;Laerm;62742;52.136;4.500;2023-02-22T16:50:55;45.53;41.78;49.58;;
72858;Laerm;62742;52.136;4.500;2023-02-22T16:53:25;45.68;40.61;48.97;;
72858;Laerm;62742;52.136;4.500;2023-02-22T16:56:00;46.27;42.02;49.64;;